KBGD/BGD METAR and TAF weather

Enter ICAO airport designator
Station Type Date Time Source
KBGD METAR 2020/03/28 20:51 UTC NOAA

KBGD 282051Z AUTO 31012G23KT 270V340 10SM SCT110 19/M10 A2984 RMK AO2 SLP081 T01891100 50001


Station Type Date Time Source
KBGD Decoded METAR 2020/03/28 20:51 UTC NOAA

BORGER HUTCHINSON CO AIRPORT , TX, United States (KBGD) 35-42N 101-24W 927M
Mar 28, 2020 - 04:51 PM EDT / 2020.03.28 2051 UTC
Wind: from the NW (310 degrees) at 14 MPH (12 KT) gusting to 26 MPH (23 KT) (direction variable):0
Visibility: 10 mile(s):0
Sky conditions: partly cloudy
Temperature: 66.0 F (18.9 C)
Dew Point: 14.0 F (-10.0 C)
Relative Humidity: 13%
Pressure (altimeter): 29.84 in. Hg (1010 hPa)
Pressure tendency: 0.00 inches (0.1 hPa) higher than three hours ago
ob: KBGD 282051Z AUTO 31012G23KT 270V340 10SM SCT110 19/M10 A2984 RMK AO2 SLP081 T01891100 50001
cycle: 21

Station Type Date Time Source
KBGD TAF UTC NOAA

Error!

Example: see airport list